Time;durP1;ratioP1;P1;durP2;ratioP2;P2;SDS_P1;SDS_P2;PMS_P1;PMS_P2;Temp;Humidity;BMP_temperature;BMP_pressure;BME280_temperature;BME280_humidity;BME280_pressure;Samples;Min_cycle;Max_cycle;Signal;HPM_P1;HPM_P2
2021/03/14 00:00:01;;;;;;;;;;;;;;;21.71;24.71;97759.44;5062402;28;899;-74
2021/03/14 00:02:27;;;;;;;;;;;;;;;21.61;25.09;97754.88;5062018;28;1973;-72
2021/03/14 00:04:52;;;;;;;;;;;;;;;21.95;24.79;97759.88;5062250;28;973;-72
2021/03/14 00:07:17;;;;;;;;;;;;;;;22.32;23.97;97752.63;5062288;28;670;-73
2021/03/14 00:09:43;;;;;;;;;;;;;;;22.42;24.05;97744.22;5062125;28;607;-73
2021/03/14 00:12:08;;;;;;;;;;;;;;;22.32;23.71;97735.59;5062390;28;630;-74
2021/03/14 00:14:34;;;;;;;;;;;;;;;22.01;24.28;97726.09;5061733;28;1018;-74
2021/03/14 00:17:00;;;;;;;;;;;;;;;21.76;24.82;97733.38;5061786;28;870;-73
2021/03/14 00:19:25;;;;;;;;;;;;;;;21.46;25.31;97726.22;5061896;28;971;-73
2021/03/14 00:21:51;;;;;;;;;;;;;;;22.25;24.35;97724.53;5061992;28;1894;-74
2021/03/14 00:24:16;;;;;;;;;;;;;;;22.53;23.68;97724.78;5062392;28;665;-74
2021/03/14 00:26:42;;;;;;;;;;;;;;;22.53;23.79;97721.94;5061840;28;619;-74
2021/03/14 00:29:07;;;;;;;;;;;;;;;22.01;24.43;97726.09;5061459;28;990;-74
2021/03/14 00:31:33;;;;;;;;;;;;;;;21.75;24.52;97714.78;5061474;28;858;-73
2021/03/14 00:34:00;;;;;;;;;;;;;;;21.76;24.75;97713.56;5062185;28;936;-73
2021/03/14 00:36:26;;;;;;;;;;;;;;;21.94;24.66;97706.50;5061920;28;1145;-74
2021/03/14 00:38:51;;;;;;;;;;;;;;;22.36;24.16;97702.28;5060756;28;690;-74
2021/03/14 00:41:17;;;;;;;;;;;;;;;22.58;23.98;97705.16;5061498;28;1968;-74
2021/03/14 00:43:45;;;;;;;;;;;;;;;22.29;23.91;97696.06;5060513;28;1349;-73
2021/03/14 00:46:11;;;;;;;;;;;;;;;21.90;24.33;97691.66;5061350;28;943;-74
2021/03/14 00:48:41;;;;;;;;;;;;;;;21.26;25.65;97695.25;5060517;28;1293;-74
2021/03/14 00:51:07;;;;;;;;;;;;;;;21.50;25.34;97694.94;5060960;28;1277;-74
2021/03/14 00:53:39;;;;;;;;;;;;;;;22.21;24.17;97694.72;5060815;28;1206;-73
2021/03/14 00:56:09;;;;;;;;;;;;;;;22.44;23.73;97685.03;5060606;28;1186;-74
2021/03/14 00:58:34;;;;;;;;;;;;;;;22.35;24.10;97697.84;5060466;28;1495;-74
2021/03/14 01:01:00;;;;;;;;;;;;;;;21.76;24.71;97687.25;5060429;28;1977;-73
2021/03/14 01:03:29;;;;;;;;;;;;;;;21.69;24.93;97691.13;5061323;28;734;-73
2021/03/14 01:05:55;;;;;;;;;;;;;;;21.64;24.91;97691.69;5061091;28;657;-73
2021/03/14 01:08:23;;;;;;;;;;;;;;;21.82;24.90;97677.75;5060583;28;1163;-74
2021/03/14 01:10:49;;;;;;;;;;;;;;;21.67;24.81;97687.94;5060726;28;895;-74
2021/03/14 01:13:27;;;;;;;;;;;;;;;21.78;24.94;97685.56;5059809;28;1086;-74
2021/03/14 01:15:53;;;;;;;;;;;;;;;22.35;23.99;97683.69;5061005;28;678;-73
2021/03/14 01:18:19;;;;;;;;;;;;;;;22.56;23.71;97687.03;5061280;28;665;-73
2021/03/14 01:20:45;;;;;;;;;;;;;;;22.40;23.57;97678.69;5060778;28;1927;-74
2021/03/14 01:23:10;;;;;;;;;;;;;;;21.72;24.97;97684.56;5092889;28;868;-74
2021/03/14 01:25:36;;;;;;;;;;;;;;;21.88;24.44;97671.53;5060431;28;852;-74
2021/03/14 01:28:01;;;;;;;;;;;;;;;21.76;24.78;97682.41;5060784;28;861;-74
2021/03/14 01:30:30;;;;;;;;;;;;;;;22.27;24.21;97673.84;5060643;28;600;-74
2021/03/14 01:32:56;;;;;;;;;;;;;;;22.60;23.49;97677.13;5060657;28;646;-74
2021/03/14 01:35:22;;;;;;;;;;;;;;;22.41;23.89;97674.59;5060875;28;603;-74
2021/03/14 01:37:47;;;;;;;;;;;;;;;21.94;24.65;97667.66;5060180;28;913;-74
2021/03/14 01:40:14;;;;;;;;;;;;;;;21.68;25.00;97666.88;5060633;28;911;-72
2021/03/14 01:42:39;;;;;;;;;;;;;;;21.63;25.17;97681.59;5059012;28;1981;-73
2021/03/14 01:45:05;;;;;;;;;;;;;;;21.92;24.57;97673.00;5060378;28;646;-73
2021/03/14 01:47:32;;;;;;;;;;;;;;;22.38;24.13;97669.84;5067418;28;992;-74
2021/03/14 01:49:58;;;;;;;;;;;;;;;22.28;24.01;97671.81;5062190;28;956;-74
2021/03/14 01:52:24;;;;;;;;;;;;;;;22.02;24.19;97671.03;5080069;28;913;-73
2021/03/14 01:54:49;;;;;;;;;;;;;;;21.71;24.76;97677.31;5062852;28;967;-73
2021/03/14 01:57:15;;;;;;;;;;;;;;;21.64;25.19;97680.34;5062891;28;698;-74
2021/03/14 01:59:41;;;;;;;;;;;;;;;21.99;24.77;97678.41;5062355;28;811;-74
2021/03/14 02:02:06;;;;;;;;;;;;;;;22.32;24.30;97672.47;5080159;28;1913;-74
2021/03/14 02:04:32;;;;;;;;;;;;;;;22.60;23.73;97676.34;5080062;28;686;-74
2021/03/14 02:06:57;;;;;;;;;;;;;;;22.66;23.54;97662.38;5079721;28;901;-74
2021/03/14 02:09:22;;;;;;;;;;;;;;;22.22;24.03;97674.41;5079732;28;926;-74
2021/03/14 02:11:48;;;;;;;;;;;;;;;21.38;25.50;97673.88;5062750;28;833;-73
2021/03/14 02:14:13;;;;;;;;;;;;;;;21.82;24.90;97659.97;5062677;28;670;-74
2021/03/14 02:16:40;;;;;;;;;;;;;;;22.02;24.37;97671.84;5080277;28;666;-73
2021/03/14 02:19:08;;;;;;;;;;;;;;;21.81;24.70;97662.00;5079872;28;655;-73
2021/03/14 02:21:33;;;;;;;;;;;;;;;21.57;25.00;97667.22;5079477;28;1901;-74
2021/03/14 02:24:02;;;;;;;;;;;;;;;21.67;25.04;97664.50;5062362;28;862;-73
2021/03/14 02:26:33;;;;;;;;;;;;;;;21.75;24.92;97663.81;5079747;28;961;-74
2021/03/14 02:28:59;;;;;;;;;;;;;;;21.54;25.31;97667.31;5079762;28;690;-74
2021/03/14 02:31:24;;;;;;;;;;;;;;;22.28;24.39;97666.16;5062291;28;903;-74
2021/03/14 02:33:51;;;;;;;;;;;;;;;22.41;23.94;97668.94;5062161;28;853;-73
2021/03/14 02:36:17;;;;;;;;;;;;;;;22.47;24.02;97661.41;5061545;28;893;-74
2021/03/14 02:38:42;;;;;;;;;;;;;;;21.96;24.33;97665.13;5062469;28;842;-73
2021/03/14 02:41:08;;;;;;;;;;;;;;;21.71;24.79;97663.16;5062452;28;1972;-73
2021/03/14 02:43:34;;;;;;;;;;;;;;;21.59;25.01;97661.09;5062331;28;862;-74
2021/03/14 02:45:59;;;;;;;;;;;;;;;22.00;24.80;97657.31;5062166;28;802;-74
2021/03/14 02:48:25;;;;;;;;;;;;;;;22.43;24.08;97657.91;5079584;28;979;-72
2021/03/14 02:50:50;;;;;;;;;;;;;;;22.60;23.62;97657.28;5079549;28;706;-73
2021/03/14 02:53:16;;;;;;;;;;;;;;;22.09;24.26;97656.63;5061865;28;1064;-74
2021/03/14 02:55:42;;;;;;;;;;;;;;;21.81;24.72;97667.69;5079513;28;897;-74
2021/03/14 02:58:07;;;;;;;;;;;;;;;21.66;25.07;97672.22;5062257;28;855;-72
2021/03/14 03:00:33;;;;;;;;;;;;;;;21.75;24.97;97657.34;5079439;28;1980;-74
2021/03/14 03:02:59;;;;;;;;;;;;;;;22.38;23.84;97664.16;5082701;28;666;-74
2021/03/14 03:05:24;;;;;;;;;;;;;;;22.52;23.85;97663.66;5065989;28;956;-74
2021/03/14 03:07:53;;;;;;;;;;;;;;;22.20;24.14;97665.59;5065869;28;887;-73
2021/03/14 03:10:19;;;;;;;;;;;;;;;21.71;24.64;97663.16;5065850;28;859;-74
2021/03/14 03:12:48;;;;;;;;;;;;;;;21.30;25.38;97661.22;5083296;28;853;-73
2021/03/14 03:15:14;;;;;;;;;;;;;;;21.67;25.21;97658.84;5065350;28;849;-74
2021/03/14 03:17:39;;;;;;;;;;;;;;;21.23;25.76;97667.03;5083118;28;670;-74
2021/03/14 03:20:05;;;;;;;;;;;;;;;21.78;24.85;97662.91;5065495;28;977;-74
2021/03/14 03:22:30;;;;;;;;;;;;;;;21.74;25.10;97650.91;5065468;28;1969;-74
2021/03/14 03:24:56;;;;;;;;;;;;;;;21.68;25.21;97652.72;5083034;28;865;-74
2021/03/14 03:27:21;;;;;;;;;;;;;;;22.30;24.22;97655.91;5083325;28;670;-73
2021/03/14 03:29:47;;;;;;;;;;;;;;;22.46;24.15;97645.66;5082892;28;665;-73
2021/03/14 03:32:13;;;;;;;;;;;;;;;22.52;24.11;97653.13;5083090;28;664;-73
2021/03/14 03:34:38;;;;;;;;;;;;;;;21.89;24.63;97650.44;5082540;28;881;-74
2021/03/14 03:37:04;;;;;;;;;;;;;;;21.49;25.21;97648.88;5082507;28;804;-74
2021/03/14 03:39:29;;;;;;;;;;;;;;;21.82;24.75;97655.09;5082739;28;926;-74
2021/03/14 03:42:06;;;;;;;;;;;;;;;21.89;24.70;97656.88;5065733;28;1906;-73
2021/03/14 03:44:33;;;;;;;;;;;;;;;22.43;23.88;97655.06;5065376;28;607;-74
2021/03/14 03:46:58;;;;;;;;;;;;;;;22.50;24.00;97646.34;5082411;28;1097;-73
2021/03/14 03:49:26;;;;;;;;;;;;;;;21.99;24.58;97650.06;5064782;28;983;-73
2021/03/14 03:51:51;;;;;;;;;;;;;;;21.47;25.25;97642.88;5082558;28;753;-73
2021/03/14 03:54:17;;;;;;;;;;;;;;;21.65;25.16;97639.47;5065193;28;622;-73
2021/03/14 03:56:42;;;;;;;;;;;;;;;21.67;25.27;97644.69;5065303;28;654;-73
2021/03/14 03:59:08;;;;;;;;;;;;;;;21.90;25.01;97646.34;5064988;28;912;-74
2021/03/14 04:01:33;;;;;;;;;;;;;;;22.24;24.30;97643.59;5064628;28;1967;-73
2021/03/14 04:04:00;;;;;;;;;;;;;;;22.58;24.00;97645.59;5063987;28;877;-74
2021/03/14 04:06:25;;;;;;;;;;;;;;;22.35;24.22;97635.50;5082238;28;818;-74
2021/03/14 04:08:51;;;;;;;;;;;;;;;21.96;24.58;97641.69;5065080;28;651;-73
2021/03/14 04:11:18;;;;;;;;;;;;;;;21.48;25.17;97632.34;5064928;28;631;-73
2021/03/14 04:13:43;;;;;;;;;;;;;;;21.81;25.09;97636.53;5062773;28;869;-74
2021/03/14 04:16:09;;;;;;;;;;;;;;;21.85;25.01;97622.22;5064833;28;984;-74
2021/03/14 04:18:35;;;;;;;;;;;;;;;21.75;25.03;97634.69;5064518;28;906;-73
2021/03/14 04:21:01;;;;;;;;;;;;;;;21.64;25.06;97623.72;5081928;28;1963;-73
2021/03/14 04:23:27;;;;;;;;;;;;;;;21.70;25.28;97621.09;5081988;28;664;-73
2021/03/14 04:25:53;;;;;;;;;;;;;;;21.50;25.44;97629.84;5082046;28;666;-74
2021/03/14 04:28:19;;;;;;;;;;;;;;;21.71;25.17;97629.19;5064537;28;699;-74
2021/03/14 04:30:44;;;;;;;;;;;;;;;21.56;25.43;97622.38;5081979;28;670;-74
2021/03/14 04:33:10;;;;;;;;;;;;;;;21.75;25.26;97615.66;5064098;28;888;-74
2021/03/14 04:35:35;;;;;;;;;;;;;;;22.27;24.48;97614.31;5064152;28;1009;-74
2021/03/14 04:38:01;;;;;;;;;;;;;;;22.57;23.93;97614.88;5064249;28;1103;-74
2021/03/14 04:40:27;;;;;;;;;;;;;;;22.12;24.36;97606.78;5064382;28;1440;-74
2021/03/14 04:42:53;;;;;;;;;;;;;;;21.97;24.70;97606.47;5081571;28;1910;-74
2021/03/14 04:45:18;;;;;;;;;;;;;;;21.63;25.33;97604.38;5064277;28;619;-73
2021/03/14 04:47:44;;;;;;;;;;;;;;;21.48;25.52;97599.16;5063779;28;1198;-74
2021/03/14 04:50:13;;;;;;;;;;;;;;;21.51;25.45;97608.81;5064012;28;829;-73
2021/03/14 04:52:39;;;;;;;;;;;;;;;21.25;25.79;97608.78;5081583;28;987;-74
2021/03/14 04:55:05;;;;;;;;;;;;;;;21.46;25.45;97610.16;5064075;28;614;-74
2021/03/14 04:57:30;;;;;;;;;;;;;;;21.38;25.59;97610.84;5081194;28;674;-72
2021/03/14 04:59:56;;;;;;;;;;;;;;;21.37;25.71;97606.41;5047328;28;639;-74
2021/03/14 05:02:21;;;;;;;;;;;;;;;22.23;24.54;97607.22;5064343;28;1887;-74
2021/03/14 05:04:47;;;;;;;;;;;;;;;22.54;24.19;97607.31;5064000;28;1019;-74
2021/03/14 05:07:12;;;;;;;;;;;;;;;22.36;24.29;97605.91;5080904;28;879;-74
2021/03/14 05:09:38;;;;;;;;;;;;;;;21.74;25.26;97611.25;5064124;28;942;-74
2021/03/14 05:12:03;;;;;;;;;;;;;;;21.69;25.30;97609.00;5064161;28;789;-74
2021/03/14 05:14:29;;;;;;;;;;;;;;;21.72;25.26;97601.66;5063685;28;785;-74
2021/03/14 05:16:54;;;;;;;;;;;;;;;22.15;24.73;97605.88;5081044;28;658;-74
2021/03/14 05:19:20;;;;;;;;;;;;;;;22.43;24.01;97599.16;5063355;28;945;-74
2021/03/14 05:21:45;;;;;;;;;;;;;;;22.41;24.28;97606.56;5046459;28;1902;-74
2021/03/14 05:24:17;;;;;;;;;;;;;;;22.14;24.32;97605.09;5063195;28;876;-74
2021/03/14 05:26:45;;;;;;;;;;;;;;;21.76;24.85;97603.13;5063323;28;664;-74
2021/03/14 05:29:11;;;;;;;;;;;;;;;21.73;25.15;97604.00;5063403;28;666;-74
2021/03/14 05:31:36;;;;;;;;;;;;;;;22.12;24.80;97606.78;5080744;28;583;-74
2021/03/14 05:34:03;;;;;;;;;;;;;;;22.45;24.19;97610.06;5080664;28;721;-74
2021/03/14 05:36:29;;;;;;;;;;;;;;;22.41;24.21;97612.22;5080473;28;872;-74
2021/03/14 05:38:55;;;;;;;;;;;;;;;21.94;24.62;97613.03;5062332;28;862;-74
2021/03/14 05:41:20;;;;;;;;;;;;;;;21.75;24.93;97618.50;5080469;28;1898;-74
2021/03/14 05:43:46;;;;;;;;;;;;;;;21.58;25.38;97620.69;5063414;28;785;-74
2021/03/14 05:46:12;;;;;;;;;;;;;;;21.98;25.10;97616.53;5062429;28;920;-74
2021/03/14 05:48:37;;;;;;;;;;;;;;;22.39;24.31;97614.75;5080229;28;1025;-72
2021/03/14 05:51:03;;;;;;;;;;;;;;;22.53;23.94;97619.88;5080077;28;1022;-74
2021/03/14 05:53:29;;;;;;;;;;;;;;;22.16;24.39;97613.13;5080014;28;963;-74
2021/03/14 05:55:54;;;;;;;;;;;;;;;21.59;25.36;97615.81;5062316;28;856;-74
2021/03/14 05:58:20;;;;;;;;;;;;;;;21.73;24.92;97614.56;5063364;28;630;-74
2021/03/14 06:00:46;;;;;;;;;;;;;;;21.95;25.00;97614.63;5080083;28;1902;-74
2021/03/14 06:03:12;;;;;;;;;;;;;;;22.29;24.40;97623.16;5062909;28;653;-74
2021/03/14 06:05:38;;;;;;;;;;;;;;;22.52;24.34;97612.63;5080639;28;940;-74
2021/03/14 06:08:04;;;;;;;;;;;;;;;21.72;24.92;97616.59;5062987;28;654;-74
2021/03/14 06:10:31;;;;;;;;;;;;;;;21.86;24.94;97623.81;5062889;28;705;-74
2021/03/14 06:12:56;;;;;;;;;;;;;;;21.68;25.08;97618.75;5062517;28;897;-73
2021/03/14 06:15:22;;;;;;;;;;;;;;;21.58;25.21;97623.50;5080265;28;686;-74
2021/03/14 06:17:48;;;;;;;;;;;;;;;21.68;25.40;97617.94;5080083;28;934;-74
2021/03/14 06:20:34;;;;;;;;;;;;;;;21.30;25.80;97608.25;5080100;28;864;-74
2021/03/14 06:23:09;;;;;;;;;;;;;;;21.54;25.69;97613.53;5062316;28;1910;-74
2021/03/14 06:25:35;;;;;;;;;;;;;;;22.22;24.73;97614.91;5062945;28;698;-74
2021/03/14 06:28:00;;;;;;;;;;;;;;;22.40;24.23;97616.31;5080239;28;697;-74
2021/03/14 06:30:26;;;;;;;;;;;;;;;22.53;24.27;97620.66;5080194;28;615;-74
2021/03/14 06:33:10;;;;;;;;;;;;;;;22.21;24.62;97609.69;5079796;28;900;-75
2021/03/14 06:35:56;;;;;;;;;;;;;;;21.94;25.04;97611.00;5079515;28;990;-74
2021/03/14 06:38:24;;;;;;;;;;;;;;;21.89;25.06;97616.44;5079470;28;1472;-74
2021/03/14 06:41:10;;;;;;;;;;;;;;;22.15;24.67;97615.16;5080055;28;1979;-74
2021/03/14 06:43:42;;;;;;;;;;;;;;;22.35;24.44;97610.00;5079493;28;1414;-74
2021/03/14 06:46:26;;;;;;;;;;;;;;;22.29;24.35;97614.66;5079964;28;606;-75
2021/03/14 06:49:12;;;;;;;;;;;;;;;21.72;25.11;97619.44;5079406;28;1118;-74
2021/03/14 06:51:41;;;;;;;;;;;;;;;21.71;25.17;97611.38;5079597;28;872;-74
2021/03/14 06:54:33;;;;;;;;;;;;;;;21.71;25.36;97622.69;5079789;28;737;-75
2021/03/14 06:57:11;;;;;;;;;;;;;;;21.71;25.29;97612.19;5076342;28;1562;-73
2021/03/14 06:59:42;;;;;;;;;;;;;;;22.12;24.94;97618.91;5079913;28;657;-74
2021/03/14 07:02:12;;;;;;;;;;;;;;;22.43;24.43;97615.38;5062094;28;1969;-73
2021/03/14 07:04:53;;;;;;;;;;;;;;;22.50;24.39;97609.47;5079682;28;912;-74
2021/03/14 07:07:19;;;;;;;;;;;;;;;21.97;24.81;97609.31;5079742;28;654;-75
2021/03/14 07:09:46;;;;;;;;;;;;;;;21.58;25.40;97617.84;5079870;28;661;-74
2021/03/14 07:12:18;;;;;;;;;;;;;;;21.61;25.34;97618.19;5062815;28;727;-75
2021/03/14 07:14:44;;;;;;;;;;;;;;;21.76;25.50;97608.78;5079863;28;709;-75
2021/03/14 07:17:10;;;;;;;;;;;;;;;22.20;24.61;97610.94;5079504;28;986;-74
2021/03/14 07:19:35;;;;;;;;;;;;;;;22.37;24.39;97620.84;5079477;28;850;-75
2021/03/14 07:22:02;;;;;;;;;;;;;;;22.04;24.89;97606.22;5062543;28;1902;-75
2021/03/14 07:24:34;;;;;;;;;;;;;;;21.64;25.43;97606.75;5079742;28;689;-74
2021/03/14 07:27:01;;;;;;;;;;;;;;;21.76;25.00;97605.94;5079021;28;806;-74
2021/03/14 07:29:27;;;;;;;;;;;;;;;21.49;25.61;97602.78;5079563;28;546;-75
2021/03/14 07:31:53;;;;;;;;;;;;;;;21.78;25.25;97599.81;5079534;28;888;-75
2021/03/14 07:34:19;;;;;;;;;;;;;;;22.20;24.81;97602.44;5061310;28;929;-74
2021/03/14 07:36:45;;;;;;;;;;;;;;;22.60;24.35;97586.41;5062283;28;1258;-74
2021/03/14 07:39:10;;;;;;;;;;;;;;;22.27;24.59;97591.63;5079437;28;717;-74
2021/03/14 07:41:35;;;;;;;;;;;;;;;21.90;25.18;97595.38;5079396;28;1906;-74
2021/03/14 07:44:01;;;;;;;;;;;;;;;21.62;25.57;97591.47;5079455;28;702;-74
2021/03/14 07:46:27;;;;;;;;;;;;;;;21.68;25.45;97595.31;5079152;28;941;-74
2021/03/14 07:48:52;;;;;;;;;;;;;;;21.40;25.78;97592.16;5082177;28;1077;-74
2021/03/14 07:51:19;;;;;;;;;;;;;;;22.19;24.85;97590.31;5083196;28;1001;-74
2021/03/14 07:53:44;;;;;;;;;;;;;;;22.53;24.18;97591.53;5082900;28;678;-74
2021/03/14 07:56:10;;;;;;;;;;;;;;;22.48;24.42;97584.41;5082903;28;678;-75
2021/03/14 07:58:35;;;;;;;;;;;;;;;21.91;25.10;97579.94;5083138;28;674;-74
2021/03/14 08:01:20;;;;;;;;;;;;;;;21.63;25.34;97582.50;5065395;28;1972;-74
2021/03/14 08:03:46;;;;;;;;;;;;;;;21.72;25.32;97585.44;5082429;28;893;-74
2021/03/14 08:06:11;;;;;;;;;;;;;;;21.54;25.64;97582.41;5083387;28;610;-72
2021/03/14 08:08:46;;;;;;;;;;;;;;;22.20;25.02;97580.56;5082587;28;633;-74
2021/03/14 08:11:21;;;;;;;;;;;;;;;22.41;24.29;97584.69;5082685;28;685;-74
2021/03/14 08:13:46;;;;;;;;;;;;;;;22.42;24.60;97591.13;5082630;28;661;-74
2021/03/14 08:16:13;;;;;;;;;;;;;;;22.10;24.73;97581.72;5064876;28;1053;-74
2021/03/14 08:18:41;;;;;;;;;;;;;;;21.38;25.81;97586.16;5082141;28;892;-75
2021/03/14 08:21:27;;;;;;;;;;;;;;;21.67;25.47;97571.84;5082359;28;1906;-75
2021/03/14 08:23:53;;;;;;;;;;;;;;;21.77;25.75;97584.88;5082303;28;1192;-74
2021/03/14 08:26:23;;;;;;;;;;;;;;;22.22;24.87;97583.72;5048317;28;801;-74
2021/03/14 08:28:51;;;;;;;;;;;;;;;22.42;24.54;97574.13;5064765;28;1119;-74
2021/03/14 08:31:37;;;;;;;;;;;;;;;22.19;24.78;97579.00;5082111;28;853;-74
2021/03/14 08:34:03;;;;;;;;;;;;;;;22.10;24.91;97567.53;5064678;28;1202;-74
2021/03/14 08:36:37;;;;;;;;;;;;;;;21.71;25.67;97561.22;5065022;28;1186;-75
2021/03/14 08:39:18;;;;;;;;;;;;;;;21.84;25.50;97567.63;5082099;28;670;-74
2021/03/14 08:41:49;;;;;;;;;;;;;;;21.85;25.55;97565.56;5064552;28;1902;-74
2021/03/14 08:44:44;;;;;;;;;;;;;;;22.22;24.81;97558.22;5048883;28;1351;-74
2021/03/14 08:47:23;;;;;;;;;;;;;;;22.50;24.65;97558.44;5077095;28;1324;-74
2021/03/14 08:49:57;;;;;;;;;;;;;;;22.17;24.83;97555.97;5049010;28;1334;-74
2021/03/14 08:52:25;;;;;;;;;;;;;;;21.68;25.84;97559.28;5081857;28;598;-75
2021/03/14 08:55:08;;;;;;;;;;;;;;;21.77;25.70;97552.94;5064408;28;1178;-74
2021/03/14 08:57:37;;;;;;;;;;;;;;;21.92;25.60;97554.03;5064945;28;615;-74
2021/03/14 09:00:05;;;;;;;;;;;;;;;22.44;24.53;97543.28;5080934;28;594;-75
2021/03/14 09:02:36;;;;;;;;;;;;;;;22.55;24.40;97550.13;5048475;28;1969;-74
2021/03/14 09:05:12;;;;;;;;;;;;;;;22.01;25.30;97536.28;5081318;28;916;-74
2021/03/14 09:07:56;;;;;;;;;;;;;;;21.68;25.54;97536.63;5081633;28;645;-74
2021/03/14 09:10:22;;;;;;;;;;;;;;;21.60;26.01;97543.78;5063456;28;920;-74
2021/03/14 09:13:01;;;;;;;;;;;;;;;21.90;25.44;97528.16;5081463;28;657;-75
2021/03/14 09:15:56;;;;;;;;;;;;;;;22.41;24.69;97532.88;5072441;28;1347;-75
2021/03/14 09:18:26;;;;;;;;;;;;;;;22.47;24.67;97525.34;5080969;28;929;-74
2021/03/14 09:21:00;;;;;;;;;;;;;;;22.10;25.14;97519.38;5063845;28;1901;-74
2021/03/14 09:23:40;;;;;;;;;;;;;;;21.41;25.84;97516.53;5064072;28;1410;-75
2021/03/14 09:26:06;;;;;;;;;;;;;;;21.67;25.65;97515.22;5064083;28;1353;-75
2021/03/14 09:28:42;;;;;;;;;;;;;;;21.70;25.81;97519.97;5063946;28;1223;-74
2021/03/14 09:31:10;;;;;;;;;;;;;;;21.68;25.64;97519.66;5063946;28;1382;-74
2021/03/14 09:33:38;;;;;;;;;;;;;;;21.63;26.00;97506.06;5063206;28;1216;-74
2021/03/14 09:36:15;;;;;;;;;;;;;;;22.23;25.12;97511.66;5063118;28;1185;-74
2021/03/14 09:38:57;;;;;;;;;;;;;;;22.47;24.62;97505.50;5063414;28;1155;-74
2021/03/14 09:41:25;;;;;;;;;;;;;;;22.42;24.68;97514.59;5063213;28;1898;-74
2021/03/14 09:43:51;;;;;;;;;;;;;;;22.03;25.31;97513.97;5080788;28;672;-74
2021/03/14 09:46:21;;;;;;;;;;;;;;;21.83;25.60;97512.22;5063614;28;1846;-74
2021/03/14 09:49:16;;;;;;;;;;;;;;;21.61;25.76;97510.63;5063045;28;1011;-74
2021/03/14 09:51:58;;;;;;;;;;;;;;;21.67;25.64;97503.91;5063278;28;1267;-74
2021/03/14 09:54:28;;;;;;;;;;;;;;;21.66;26.06;97502.34;5063508;28;1175;-75
2021/03/14 09:56:54;;;;;;;;;;;;;;;22.17;25.06;97507.81;5063478;28;1254;-74
2021/03/14 09:59:26;;;;;;;;;;;;;;;22.48;24.79;97498.56;5064160;28;571;-75
2021/03/14 10:02:18;;;;;;;;;;;;;;;22.49;24.62;97498.13;5096635;28;1988;-75
2021/03/14 10:05:16;;;;;;;;;;;;;;;21.73;25.60;97484.28;5084199;28;1375;-75
2021/03/14 10:07:42;;;;;;;;;;;;;;;21.79;25.81;97494.56;5080092;28;970;-74
2021/03/14 10:10:12;;;;;;;;;;;;;;;21.47;26.35;97483.56;5062799;28;1202;-74
2021/03/14 10:12:52;;;;;;;;;;;;;;;21.61;26.01;97483.09;5062918;28;1234;-74
2021/03/14 10:15:17;;;;;;;;;;;;;;;22.07;25.52;97481.44;5063191;28;1283;-74
2021/03/14 10:17:47;;;;;;;;;;;;;;;22.33;24.90;97484.16;5063171;28;1190;-74
2021/03/14 10:20:13;;;;;;;;;;;;;;;22.48;24.66;97492.91;5062808;28;873;-74
2021/03/14 10:22:38;;;;;;;;;;;;;;;22.52;24.48;97483.00;5062774;28;1977;-74
2021/03/14 10:25:25;;;;;;;;;;;;;;;22.01;25.27;97471.13;5063082;28;1305;-75
2021/03/14 10:27:51;;;;;;;;;;;;;;;21.69;26.06;97470.25;5062659;28;841;-74
2021/03/14 10:30:29;;;;;;;;;;;;;;;21.45;26.29;97469.06;5080209;28;697;-74
2021/03/14 10:33:15;;;;;;;;;;;;;;;21.85;25.85;97458.75;5079358;28;1055;-74
2021/03/14 10:35:43;;;;;;;;;;;;;;;21.79;25.84;97460.59;5079804;28;877;-74
2021/03/14 10:38:17;;;;;;;;;;;;;;;21.92;25.78;97460.53;5062575;28;1365;-74
2021/03/14 10:40:44;;;;;;;;;;;;;;;22.42;24.83;97460.72;5062870;28;1198;-74
2021/03/14 10:43:23;;;;;;;;;;;;;;;22.54;24.83;97457.03;5080103;28;2030;-74
2021/03/14 10:45:57;;;;;;;;;;;;;;;22.03;25.62;97452.44;5080172;28;650;-75
2021/03/14 10:48:25;;;;;;;;;;;;;;;21.46;26.08;97443.16;5062295;28;1301;-75
2021/03/14 10:50:57;;;;;;;;;;;;;;;21.79;25.90;97443.59;5079837;28;959;-75
2021/03/14 10:53:24;;;;;;;;;;;;;;;21.64;25.92;97442.53;5062679;28;1274;-74
2021/03/14 10:56:21;;;;;;;;;;;;;;;21.55;26.39;97439.59;5080342;28;717;-74
2021/03/14 10:58:50;;;;;;;;;;;;;;;22.23;25.40;97426.63;5077817;28;1448;-74
2021/03/14 11:01:28;;;;;;;;;;;;;;;22.47;24.79;97417.59;5062394;28;1972;-75
2021/03/14 11:04:06;;;;;;;;;;;;;;;22.16;25.22;97421.22;5062180;28;1434;-74
2021/03/14 11:06:34;;;;;;;;;;;;;;;21.87;25.60;97420.69;5062404;28;1338;-74
2021/03/14 11:09:10;;;;;;;;;;;;;;;21.19;26.91;97421.03;5062496;28;1199;-75
2021/03/14 11:11:41;;;;;;;;;;;;;;;21.31;26.72;97406.06;5062617;28;1166;-74
2021/03/14 11:14:26;;;;;;;;;;;;;;;22.08;25.65;97402.91;5079742;28;646;-75
2021/03/14 11:17:23;;;;;;;;;;;;;;;22.46;25.19;97401.88;5066431;28;1155;-75
2021/03/14 11:20:21;;;;;;;;;;;;;;;22.42;24.81;97398.38;5062212;28;1257;-74
2021/03/14 11:23:07;;;;;;;;;;;;;;;22.49;25.06;97398.09;5081220;28;1977;-74
2021/03/14 11:25:34;;;;;;;;;;;;;;;21.93;25.67;97387.69;5065698;28;1135;-75
2021/03/14 11:28:00;;;;;;;;;;;;;;;21.87;25.59;97376.16;5083543;28;674;-74
2021/03/14 11:30:26;;;;;;;;;;;;;;;21.47;26.47;97381.69;5066052;28;1203;-74
2021/03/14 11:32:53;;;;;;;;;;;;;;;21.71;26.03;97382.81;5083036;28;801;-74
2021/03/14 11:35:28;;;;;;;;;;;;;;;21.75;25.90;97379.84;5065855;28;1186;-74
2021/03/14 11:38:13;;;;;;;;;;;;;;;21.32;26.27;97376.53;5065971;28;1511;-75
2021/03/14 11:40:53;;;;;;;;;;;;;;;22.17;25.62;97365.34;5065920;28;1300;-74
2021/03/14 11:43:37;;;;;;;;;;;;;;;22.44;25.11;97364.69;5083352;28;594;-74
2021/03/14 11:46:29;;;;;;;;;;;;;;;22.67;25.00;97366.97;5066224;28;1317;-74
2021/03/14 11:49:05;;;;;;;;;;;;;;;22.24;25.14;97357.34;5065572;28;1187;-75
2021/03/14 11:51:31;;;;;;;;;;;;;;;21.94;25.92;97373.06;5065480;28;1045;-74
2021/03/14 11:54:06;;;;;;;;;;;;;;;21.72;26.07;97364.56;5065780;28;1186;-75
2021/03/14 11:56:32;;;;;;;;;;;;;;;21.61;26.30;97369.06;5065916;28;936;-74
2021/03/14 11:59:00;;;;;;;;;;;;;;;21.45;26.63;97355.84;5065846;28;1149;-74
2021/03/14 12:01:35;;;;;;;;;;;;;;;21.57;26.33;97355.03;5065678;28;1906;-74
2021/03/14 12:04:02;;;;;;;;;;;;;;;21.84;25.97;97355.22;5065241;28;1180;-75
2021/03/14 12:06:29;;;;;;;;;;;;;;;22.35;25.42;97354.88;5065104;28;1207;-75
2021/03/14 12:09:15;;;;;;;;;;;;;;;22.58;24.76;97347.09;5051692;28;1305;-74
2021/03/14 12:11:43;;;;;;;;;;;;;;;21.85;25.79;97341.84;5065504;28;1226;-74
2021/03/14 12:14:10;;;;;;;;;;;;;;;21.66;26.08;97346.59;5065154;28;1171;-74
2021/03/14 12:16:54;;;;;;;;;;;;;;;21.89;25.80;97345.31;5082570;28;976;-75
2021/03/14 12:19:25;;;;;;;;;;;;;;;21.93;25.78;97328.22;5065101;28;1310;-74
2021/03/14 12:21:51;;;;;;;;;;;;;;;21.71;26.23;97340.34;5065281;28;1976;-75
2021/03/14 12:24:16;;;;;;;;;;;;;;;22.03;25.86;97335.50;5065246;28;1242;-74
2021/03/14 12:26:42;;;;;;;;;;;;;;;22.41;25.01;97345.78;5082479;28;646;-74
2021/03/14 12:29:18;;;;;;;;;;;;;;;22.61;24.98;97331.97;5065052;28;1179;-74
2021/03/14 12:31:51;;;;;;;;;;;;;;;22.12;25.34;97332.72;5064794;28;1206;-74
2021/03/14 12:34:17;;;;;;;;;;;;;;;21.80;25.84;97331.91;5063482;28;1242;-74
2021/03/14 12:36:45;;;;;;;;;;;;;;;21.82;25.89;97331.44;5065093;28;1161;-75
2021/03/14 12:39:21;;;;;;;;;;;;;;;21.64;26.35;97329.28;5065002;28;1066;-74
2021/03/14 12:41:48;;;;;;;;;;;;;;;21.50;26.57;97329.78;5065098;28;1906;-74
2021/03/14 12:44:14;;;;;;;;;;;;;;;21.77;25.91;97321.50;5081689;28;857;-74
2021/03/14 12:46:41;;;;;;;;;;;;;;;21.44;26.67;97335.25;5081679;28;940;-74
2021/03/14 12:49:06;;;;;;;;;;;;;;;22.35;25.20;97335.03;5082179;28;1093;-74
2021/03/14 12:51:33;;;;;;;;;;;;;;;22.60;24.75;97324.75;5064650;28;1247;-74
2021/03/14 12:54:01;;;;;;;;;;;;;;;22.47;24.88;97327.69;5065045;28;1356;-75
2021/03/14 12:56:26;;;;;;;;;;;;;;;22.09;25.48;97320.25;5081897;28;614;-74
2021/03/14 12:59:01;;;;;;;;;;;;;;;21.97;25.59;97311.88;5081443;28;1134;-74
2021/03/14 13:01:29;;;;;;;;;;;;;;;21.68;26.14;97312.94;5064217;28;1974;-75
2021/03/14 13:03:55;;;;;;;;;;;;;;;21.60;26.42;97317.28;5064214;28;953;-75
2021/03/14 13:06:20;;;;;;;;;;;;;;;22.26;25.39;97317.22;5081634;28;642;-75
2021/03/14 13:08:46;;;;;;;;;;;;;;;22.51;25.37;97321.88;5081884;28;450;-75
2021/03/14 13:11:12;;;;;;;;;;;;;;;22.30;25.19;97301.66;5064206;28;1379;-74
2021/03/14 13:13:38;;;;;;;;;;;;;;;22.12;25.66;97312.09;5081438;28;869;-75